createdAt,value
2019-02-05T00:01:57.209Z,70.60
2019-02-05T00:07:02.768Z,70.62
2019-02-05T00:12:08.208Z,70.43
2019-02-05T00:17:13.407Z,70.44
2019-02-05T00:22:18.832Z,70.66
2019-02-05T00:27:24.203Z,70.54
2019-02-05T00:32:29.531Z,70.68
2019-02-05T00:37:34.973Z,70.76
2019-02-05T00:42:40.322Z,70.59
2019-02-05T00:47:45.684Z,70.55
2019-02-05T00:52:51.250Z,70.36
2019-02-05T00:57:56.943Z,70.41
2019-02-05T01:03:02.166Z,70.27
2019-02-05T01:08:07.676Z,70.32
2019-02-05T01:13:13.167Z,70.41
2019-02-05T01:18:18.589Z,70.68
2019-02-05T01:23:25.298Z,70.83
2019-02-05T01:28:31.080Z,70.65
2019-02-05T01:33:36.893Z,70.87
2019-02-05T01:38:42.611Z,70.66
2019-02-05T01:43:47.684Z,70.37
2019-02-05T01:48:52.769Z,70.18
2019-02-05T01:53:58.293Z,70.25
2019-02-05T01:59:05.931Z,70.11
2019-02-05T02:04:11.342Z,70.09
2019-02-05T02:09:16.791Z,70.04
2019-02-05T02:14:21.888Z,70.02
2019-02-05T02:19:27.038Z,69.61
2019-02-05T02:24:32.858Z,69.77
2019-02-05T02:29:38.012Z,69.58
2019-02-05T02:34:43.759Z,69.77
2019-02-05T02:39:49.055Z,69.61
2019-02-05T02:44:54.144Z,69.48
2019-02-05T02:49:59.350Z,69.45
2019-02-05T02:55:06.054Z,69.66
2019-02-05T03:00:14.414Z,69.60
2019-02-05T03:05:21.805Z,69.77
2019-02-05T03:10:31.157Z,69.69
2019-02-05T03:15:36.391Z,69.82
2019-02-05T03:20:41.628Z,70.00
2019-02-05T03:25:47.789Z,70.30
2019-02-05T03:30:53.246Z,70.41
2019-02-05T03:35:59.121Z,70.32
2019-02-05T03:41:05.039Z,70.21
2019-02-05T03:46:11.047Z,70.10
2019-02-05T03:51:19.202Z,70.28
2019-02-05T03:56:43.720Z,70.04
2019-02-05T04:01:58.348Z,70.17
2019-02-05T04:07:09.890Z,70.08
2019-02-05T04:12:36.854Z,69.92
2019-02-05T04:17:59.820Z,69.78
2019-02-05T04:23:28.052Z,69.89
2019-02-05T04:28:45.488Z,70.17
2019-02-05T04:33:56.688Z,70.28
2019-02-05T04:39:13.262Z,70.05
2019-02-05T04:44:35.994Z,70.39
2019-02-05T04:49:47.140Z,70.38
2019-02-05T04:55:19.624Z,70.00
2019-02-05T05:00:30.849Z,70.05
2019-02-05T05:06:02.095Z,70.20
2019-02-05T05:11:07.650Z,70.15
2019-02-05T05:16:12.881Z,69.95
2019-02-05T05:21:19.791Z,69.87
2019-02-05T05:26:25.335Z,69.61
2019-02-05T05:31:30.629Z,69.43
2019-02-05T05:36:37.005Z,69.19
2019-02-05T05:41:42.179Z,69.07
2019-02-05T05:46:47.418Z,68.60
2019-02-05T05:51:52.634Z,68.47
2019-02-05T05:56:57.700Z,68.44
2019-02-05T06:02:02.876Z,68.22
2019-02-05T06:07:08.571Z,68.29
2019-02-05T06:12:13.794Z,68.10
2019-02-05T06:17:18.978Z,68.44
2019-02-05T06:22:24.316Z,68.63
2019-02-05T06:27:29.464Z,68.22
2019-02-05T06:32:35.056Z,67.39
2019-02-05T06:37:40.672Z,67.38
2019-02-05T06:42:46.300Z,66.88
2019-02-05T06:47:51.493Z,67.19
2019-02-05T06:52:56.803Z,66.77
2019-02-05T06:58:02.757Z,67.20
2019-02-05T07:03:07.978Z,67.43
2019-02-05T07:08:13.619Z,67.46
2019-02-05T07:13:18.799Z,67.60
2019-02-05T07:18:23.873Z,67.45
2019-02-05T07:23:29.380Z,67.59
2019-02-05T07:28:34.714Z,67.61
2019-02-05T07:33:40.159Z,67.53
2019-02-05T07:38:46.480Z,67.25
2019-02-05T07:43:51.568Z,67.14
2019-02-05T07:48:56.917Z,66.81
2019-02-05T07:54:02.283Z,66.38
2019-02-05T07:59:10.308Z,66.51
2019-02-05T08:04:15.137Z,66.38
2019-02-05T08:09:20.383Z,66.52
2019-02-05T08:14:25.565Z,65.98
2019-02-05T08:19:30.816Z,65.97
2019-02-05T08:24:35.919Z,65.52
2019-02-05T08:29:41.215Z,65.50
2019-02-05T08:34:46.366Z,65.23
2019-02-05T08:39:52.041Z,64.88
2019-02-05T08:44:57.377Z,64.55
2019-02-05T08:50:02.623Z,65.08
2019-02-05T08:55:14.375Z,64.01
2019-02-05T09:00:22.474Z,64.08
2019-02-05T09:05:27.783Z,64.32
2019-02-05T09:10:35.008Z,63.48
2019-02-05T09:15:41.390Z,63.26
2019-02-05T09:20:46.628Z,62.58
2019-02-05T09:25:51.834Z,62.59
2019-02-05T09:30:57.089Z,62.46
2019-02-05T09:36:02.653Z,62.20
2019-02-05T09:41:07.885Z,62.04
2019-02-05T09:46:14.378Z,62.12
2019-02-05T09:51:19.556Z,61.85
2019-02-05T09:56:24.681Z,61.73
2019-02-05T10:01:30.532Z,61.66
2019-02-05T10:06:35.839Z,61.96
2019-02-05T10:11:40.988Z,61.67
2019-02-05T10:16:46.473Z,61.94
2019-02-05T10:21:51.757Z,61.53
2019-02-05T10:26:57.207Z,61.78
2019-02-05T10:32:02.363Z,61.61
2019-02-05T10:37:07.566Z,61.56
2019-02-05T10:42:13.114Z,61.76
2019-02-05T10:47:18.424Z,60.88
2019-02-05T10:52:23.854Z,61.06
2019-02-05T10:57:29.159Z,60.97
2019-02-05T11:02:34.703Z,61.37
2019-02-05T11:07:39.873Z,61.47
2019-02-05T11:12:45.893Z,61.63
2019-02-05T11:17:51.388Z,61.34
2019-02-05T11:22:56.926Z,61.53
2019-02-05T11:28:02.166Z,61.92
2019-02-05T11:33:07.353Z,61.90
2019-02-05T11:38:13.201Z,62.15
2019-02-05T11:43:18.567Z,62.33
2019-02-05T11:48:23.918Z,62.33
2019-02-05T11:53:29.022Z,62.48
2019-02-05T11:58:34.551Z,62.13
2019-02-05T12:03:40.181Z,62.05
2019-02-05T12:08:45.346Z,62.32
2019-02-05T12:13:50.750Z,62.36
2019-02-05T12:18:55.803Z,62.53
2019-02-05T12:24:01.033Z,62.70
2019-02-05T12:29:06.895Z,63.01
2019-02-05T12:34:12.312Z,63.05
2019-02-05T12:39:18.380Z,63.31
2019-02-05T12:44:23.801Z,63.44
2019-02-05T12:49:29.150Z,63.81
2019-02-05T12:54:35.402Z,63.59
2019-02-05T12:59:40.837Z,64.13
2019-02-05T13:04:46.098Z,64.14
2019-02-05T13:09:51.397Z,64.06
2019-02-05T13:14:57.152Z,64.37
2019-02-05T13:20:02.825Z,64.52
2019-02-05T13:25:16.780Z,64.83
2019-02-05T13:30:24.850Z,65.20
2019-02-05T13:35:31.079Z,65.18
2019-02-05T13:40:36.950Z,65.82
2019-02-05T13:45:42.984Z,65.44
2019-02-05T13:50:49.222Z,65.82
2019-02-05T13:55:54.767Z,65.36
2019-02-05T14:01:00.255Z,65.82
2019-02-05T14:06:05.654Z,65.72
2019-02-05T14:11:11.354Z,65.77
2019-02-05T14:16:17.876Z,66.36
2019-02-05T14:21:23.301Z,66.26
2019-02-05T14:26:29.177Z,66.53
2019-02-05T14:31:34.836Z,67.13
2019-02-05T14:36:40.073Z,67.43
2019-02-05T14:41:45.569Z,67.80
2019-02-05T14:46:50.968Z,68.35
2019-02-05T14:51:57.847Z,68.42
2019-02-05T14:57:06.302Z,69.07
2019-02-05T15:02:10.547Z,69.66
2019-02-05T15:07:16.647Z,70.14
2019-02-05T15:12:22.522Z,70.69
2019-02-05T15:17:28.408Z,70.69
2019-02-05T15:22:33.651Z,71.20
2019-02-05T15:27:39.396Z,71.58
2019-02-05T15:32:58.196Z,71.80
2019-02-05T15:38:03.650Z,72.18
2019-02-05T15:43:09.114Z,72.29
2019-02-05T15:48:16.048Z,72.39
2019-02-05T15:53:21.373Z,72.33
2019-02-05T15:58:26.867Z,72.26
2019-02-05T16:03:32.093Z,72.24
2019-02-05T16:08:37.857Z,72.14
2019-02-05T16:13:43.408Z,72.29
2019-02-05T16:18:48.902Z,72.28
2019-02-05T16:23:54.657Z,72.20
2019-02-05T16:29:00.107Z,72.26
2019-02-05T16:34:05.771Z,72.28
2019-02-05T16:39:11.677Z,72.06
2019-02-05T16:44:17.111Z,72.22
2019-02-05T16:49:22.719Z,72.23
2019-02-05T16:54:28.241Z,72.14
2019-02-05T16:59:33.877Z,71.91
2019-02-05T17:04:39.046Z,71.82
2019-02-05T17:09:44.625Z,71.68
2019-02-05T17:14:49.863Z,72.08
2019-02-05T17:19:55.945Z,72.40
2019-02-05T17:25:01.202Z,72.62
2019-02-05T17:30:12.836Z,72.71
2019-02-05T17:35:18.279Z,72.62
2019-02-05T17:40:27.414Z,72.69
2019-02-05T17:45:37.695Z,72.38
2019-02-05T17:50:43.428Z,72.29
2019-02-05T17:55:48.944Z,72.21
2019-02-05T18:00:55.739Z,72.45
2019-02-05T18:06:02.233Z,72.20
2019-02-05T18:11:10.813Z,72.15
2019-02-05T18:16:16.787Z,72.01
2019-02-05T18:21:22.174Z,71.76
2019-02-05T18:26:27.759Z,72.04
2019-02-05T18:31:33.174Z,72.03
2019-02-05T18:36:38.646Z,71.92
2019-02-05T18:41:44.133Z,71.78
2019-02-05T18:46:49.369Z,71.90
2019-02-05T18:51:54.990Z,71.95
2019-02-05T18:57:00.065Z,71.97
2019-02-05T19:02:05.640Z,71.87
2019-02-05T19:07:11.006Z,71.82
2019-02-05T19:12:16.319Z,71.67
2019-02-05T19:17:21.937Z,71.75
2019-02-05T19:22:27.302Z,71.73
2019-02-05T19:27:34.095Z,71.71
2019-02-05T19:32:39.642Z,71.57
2019-02-05T19:37:45.105Z,72.01
2019-02-05T19:42:51.495Z,72.16
2019-02-05T19:47:57.937Z,72.25
2019-02-05T19:53:03.460Z,72.35
2019-02-05T19:58:09.202Z,72.33
2019-02-05T20:03:14.801Z,72.46
2019-02-05T20:08:20.197Z,72.81
2019-02-05T20:13:25.811Z,73.22
2019-02-05T20:18:31.643Z,73.27
2019-02-05T20:23:37.221Z,73.02
2019-02-05T20:28:42.532Z,72.97
2019-02-05T20:33:50.043Z,72.76
2019-02-05T20:38:54.624Z,72.55
2019-02-05T20:43:59.791Z,72.67
2019-02-05T20:49:05.921Z,72.50
2019-02-05T20:54:11.226Z,72.70
2019-02-05T20:59:16.364Z,72.70
2019-02-05T21:04:21.477Z,72.82
2019-02-05T21:09:27.500Z,73.10
2019-02-05T21:14:32.911Z,73.19
2019-02-05T21:19:38.238Z,73.96
2019-02-05T21:24:43.870Z,74.03
2019-02-05T21:29:49.324Z,74.62
2019-02-05T21:34:54.705Z,74.80
2019-02-05T21:40:02.586Z,74.76
2019-02-05T21:45:09.804Z,75.05
2019-02-05T21:50:19.411Z,75.20
2019-02-05T21:55:28.737Z,75.68
2019-02-05T22:00:36.763Z,76.01
2019-02-05T22:05:42.241Z,76.54
2019-02-05T22:10:48.140Z,77.22
2019-02-05T22:15:53.453Z,77.60
2019-02-05T22:20:58.827Z,78.29
2019-02-05T22:26:05.083Z,78.47
2019-02-05T22:31:10.554Z,78.55
2019-02-05T22:36:16.014Z,78.10
2019-02-05T22:41:21.375Z,78.74
2019-02-05T22:46:26.632Z,78.92
2019-02-05T22:51:31.757Z,78.85
2019-02-05T22:56:39.127Z,78.66
2019-02-05T23:01:46.978Z,78.67
2019-02-05T23:07:01.095Z,78.74
2019-02-05T23:12:09.564Z,78.29
2019-02-05T23:17:15.404Z,78.53
2019-02-05T23:22:21.131Z,78.27
2019-02-05T23:27:26.691Z,78.27
2019-02-05T23:32:31.956Z,78.11
2019-02-05T23:37:37.554Z,78.08
2019-02-05T23:42:43.492Z,78.24
2019-02-05T23:47:49.365Z,78.64
2019-02-05T23:52:54.935Z,78.33
2019-02-05T23:58:00.257Z,78.21
